createdAt,value
2018-04-07T00:00:04.250Z,99321.41
2018-04-07T00:02:31.818Z,99325.59
2018-04-07T00:04:59.385Z,99324.16
2018-04-07T00:07:27.060Z,99326.44
2018-04-07T00:09:54.687Z,99324.52
2018-04-07T00:12:22.254Z,99327.59
2018-04-07T00:14:49.906Z,99326.16
2018-04-07T00:17:17.467Z,99318.00
2018-04-07T00:19:45.041Z,99327.45
2018-04-07T00:22:12.602Z,99329.03
2018-04-07T00:24:40.403Z,99328.38
2018-04-07T00:27:08.006Z,99331.26
2018-04-07T00:29:35.834Z,99330.84
2018-04-07T00:32:03.655Z,99327.95
2018-04-07T00:34:31.561Z,99326.98
2018-04-07T00:36:59.137Z,99325.69
2018-04-07T00:39:26.713Z,99330.51
2018-04-07T00:41:54.310Z,99333.03
2018-04-07T00:44:21.881Z,99329.07
2018-04-07T00:46:49.446Z,99329.53
2018-04-07T00:49:17.137Z,99329.95
2018-04-07T00:51:44.898Z,99335.17
2018-04-07T00:54:12.463Z,99339.50
2018-04-07T00:56:40.025Z,99343.05
2018-04-07T00:59:07.744Z,99349.70
2018-04-07T01:01:35.571Z,99348.53
2018-04-07T01:04:03.148Z,99351.14
2018-04-07T01:06:30.879Z,99348.20
2018-04-07T01:08:58.451Z,99346.06
2018-04-07T01:11:26.014Z,99348.21
2018-04-07T01:13:53.728Z,99358.13
2018-04-07T01:16:21.297Z,99347.98
2018-04-07T01:18:48.861Z,99362.19
2018-04-07T01:21:16.426Z,99358.95
2018-04-07T01:23:44.232Z,99363.00
2018-04-07T01:26:11.830Z,99363.20
2018-04-07T01:28:39.528Z,99357.33
2018-04-07T01:31:07.085Z,99357.05
2018-04-07T01:33:34.904Z,99361.29
2018-04-07T01:36:02.513Z,99357.46
2018-04-07T01:38:31.243Z,99359.64
2018-04-07T01:40:59.062Z,99361.48
2018-04-07T01:43:26.617Z,99362.42
2018-04-07T01:45:54.197Z,99361.62
2018-04-07T01:48:22.016Z,99366.56
2018-04-07T01:50:49.622Z,99362.42
2018-04-07T01:53:17.216Z,99360.77
2018-04-07T01:55:44.934Z,99361.52
2018-04-07T01:58:12.679Z,99363.59
2018-04-07T02:00:40.245Z,99363.05
2018-04-07T02:03:07.940Z,99366.30
2018-04-07T02:05:35.552Z,99368.52
2018-04-07T02:08:03.361Z,99369.73
2018-04-07T02:10:30.951Z,99367.06
2018-04-07T02:12:58.522Z,99380.52
2018-04-07T02:15:26.095Z,99385.18
2018-04-07T02:17:53.666Z,99379.95
2018-04-07T02:20:21.235Z,99383.99
2018-04-07T02:22:48.802Z,99383.49
2018-04-07T02:25:16.366Z,99382.33
2018-04-07T02:27:43.925Z,99386.34
2018-04-07T02:30:11.722Z,99392.50
2018-04-07T02:32:39.301Z,99397.23
2018-04-07T02:35:06.876Z,99394.94
2018-04-07T02:37:34.677Z,99401.91
2018-04-07T02:40:02.256Z,99404.18
2018-04-07T02:42:29.834Z,99399.55
2018-04-07T02:44:57.631Z,99408.64
2018-04-07T02:47:25.202Z,99409.00
2018-04-07T02:49:52.766Z,99407.16
2018-04-07T02:52:20.347Z,99406.34
2018-04-07T02:54:48.104Z,99409.91
2018-04-07T02:57:15.666Z,99407.98
2018-04-07T02:59:43.415Z,99405.77
2018-04-07T03:02:11.045Z,99404.56
2018-04-07T03:04:38.609Z,99408.72
2018-04-07T03:07:06.364Z,99405.08
2018-04-07T03:09:33.926Z,99408.80
2018-04-07T03:12:01.523Z,99403.47
2018-04-07T03:14:29.126Z,99404.25
2018-04-07T03:16:56.863Z,99412.80
2018-04-07T03:19:24.604Z,99412.48
2018-04-07T03:21:52.169Z,99418.54
2018-04-07T03:24:19.746Z,99422.13
2018-04-07T03:26:47.537Z,99431.59
2018-04-07T03:29:15.117Z,99437.94
2018-04-07T03:31:42.695Z,99443.27
2018-04-07T03:34:10.258Z,99440.97
2018-04-07T03:36:37.989Z,99451.34
2018-04-07T03:39:06.230Z,99452.47
2018-04-07T03:41:34.048Z,99454.79
2018-04-07T03:44:01.621Z,99455.30
2018-04-07T03:46:29.382Z,99463.59
2018-04-07T03:48:56.981Z,99469.73
2018-04-07T03:51:24.566Z,99468.68
2018-04-07T03:53:52.227Z,99475.48
2018-04-07T03:56:20.055Z,99474.22
2018-04-07T03:58:47.873Z,99478.28
2018-04-07T04:01:15.469Z,99487.14
2018-04-07T04:03:43.075Z,99485.96
2018-04-07T04:06:10.811Z,99500.66
2018-04-07T04:08:38.381Z,99494.64
2018-04-07T04:11:06.166Z,99501.31
2018-04-07T04:13:33.982Z,99507.91
2018-04-07T04:16:01.546Z,99508.33
2018-04-07T04:18:29.114Z,99511.13
2018-04-07T04:20:56.686Z,99516.47
2018-04-07T04:23:24.254Z,99522.25
2018-04-07T04:25:51.856Z,99533.17
2018-04-07T04:28:19.427Z,99535.85
2018-04-07T04:30:47.208Z,99539.13
2018-04-07T04:33:15.028Z,99545.83
2018-04-07T04:35:42.574Z,99550.32
2018-04-07T04:38:10.148Z,99551.37
2018-04-07T04:40:37.725Z,99551.45
2018-04-07T04:43:05.353Z,99558.72
2018-04-07T04:45:33.116Z,99558.18
2018-04-07T04:48:00.744Z,99565.94
2018-04-07T04:50:28.318Z,99566.78
2018-04-07T04:52:55.888Z,99568.08
2018-04-07T04:55:23.469Z,99562.95
2018-04-07T04:57:51.044Z,99566.71
2018-04-07T05:00:19.288Z,99566.34
2018-04-07T05:02:47.043Z,99569.27
2018-04-07T05:05:14.610Z,99568.84
2018-04-07T05:07:42.379Z,99567.34
2018-04-07T05:10:10.097Z,99565.92
2018-04-07T05:12:37.680Z,99575.64
2018-04-07T05:15:05.281Z,99575.14
2018-04-07T05:17:32.890Z,99580.75
2018-04-07T05:20:00.669Z,99585.62
2018-04-07T05:22:28.229Z,99580.47
2018-04-07T05:24:55.810Z,99580.86
2018-04-07T05:27:23.382Z,99587.48
2018-04-07T05:29:51.032Z,99589.26
2018-04-07T05:32:18.858Z,99584.27
2018-04-07T05:34:46.565Z,99585.87
2018-04-07T05:37:14.134Z,99584.22
2018-04-07T05:39:41.694Z,99587.78
2018-04-07T05:42:09.299Z,99592.03
2018-04-07T05:44:36.890Z,99595.56
2018-04-07T05:47:04.463Z,99593.16
2018-04-07T05:49:32.026Z,99597.53
2018-04-07T05:51:59.642Z,99595.81
2018-04-07T05:54:27.420Z,99599.68
2018-04-07T05:56:55.034Z,99602.24
2018-04-07T05:59:22.646Z,99601.41
2018-04-07T06:01:50.360Z,99600.95
2018-04-07T06:04:17.925Z,99600.27
2018-04-07T06:06:45.496Z,99602.03
2018-04-07T06:09:13.333Z,99605.89
2018-04-07T06:11:41.147Z,99607.64
2018-04-07T06:14:08.717Z,99604.98
2018-04-07T06:16:36.286Z,99606.98
2018-04-07T06:19:04.107Z,99611.36
2018-04-07T06:21:31.919Z,99613.14
2018-04-07T06:23:59.519Z,99611.75
2018-04-07T06:26:27.247Z,99615.43
2018-04-07T06:28:54.942Z,99615.78
2018-04-07T06:31:22.506Z,99610.77
2018-04-07T06:33:50.087Z,99613.89
2018-04-07T06:36:17.660Z,99617.83
2018-04-07T06:38:45.238Z,99620.80
2018-04-07T06:41:13.063Z,99616.46
2018-04-07T06:43:40.882Z,99621.39
2018-04-07T06:46:08.801Z,99617.38
2018-04-07T06:48:36.347Z,99615.20
2018-04-07T06:51:04.105Z,99618.81
2018-04-07T06:53:31.831Z,99614.92
2018-04-07T06:55:59.673Z,99616.22
2018-04-07T06:58:27.237Z,99619.08
2018-04-07T07:00:54.862Z,99627.05
2018-04-07T07:03:22.442Z,99622.81
2018-04-07T07:05:50.246Z,99631.47
2018-04-07T07:08:17.819Z,99635.64
2018-04-07T07:10:45.373Z,99637.88
2018-04-07T07:13:13.200Z,99637.34
2018-04-07T07:15:40.766Z,99638.95
2018-04-07T07:18:08.400Z,99639.06
2018-04-07T07:20:36.115Z,99645.77
2018-04-07T07:23:03.667Z,99651.66
2018-04-07T07:25:31.268Z,99647.97
2018-04-07T07:27:58.830Z,99655.19
2018-04-07T07:30:26.401Z,99658.30
2018-04-07T07:32:53.967Z,99661.67
2018-04-07T07:35:21.762Z,99667.81
2018-04-07T07:37:49.495Z,99667.95
2018-04-07T07:40:17.091Z,99676.98
2018-04-07T07:42:44.916Z,99678.74
2018-04-07T07:45:12.480Z,99683.59
2018-04-07T07:47:40.064Z,99683.59
2018-04-07T07:50:07.870Z,99681.51
2018-04-07T07:52:35.466Z,99688.52
2018-04-07T07:55:03.206Z,99686.11
2018-04-07T07:57:30.766Z,99673.74
2018-04-07T07:59:58.363Z,99676.23
2018-04-07T08:02:25.938Z,99682.05
2018-04-07T08:04:53.779Z,99680.70
2018-04-07T08:07:21.457Z,99697.34
2018-04-07T08:09:49.315Z,99693.66
2018-04-07T08:12:16.882Z,99688.15
2018-04-07T08:14:44.461Z,99685.30
2018-04-07T08:17:12.269Z,99684.93
2018-04-07T08:19:39.874Z,99682.88
2018-04-07T08:22:07.705Z,99676.27
2018-04-07T08:24:35.281Z,99688.72
2018-04-07T08:27:02.899Z,99688.74
2018-04-07T08:29:30.661Z,99688.94
2018-04-07T08:31:58.222Z,99699.30
2018-04-07T08:34:25.826Z,99693.70
2018-04-07T08:36:53.414Z,99690.98
2018-04-07T08:39:21.028Z,99690.75
2018-04-07T08:41:48.586Z,99690.33
2018-04-07T08:44:16.203Z,99692.31
2018-04-07T08:46:43.974Z,99692.08
2018-04-07T08:49:11.540Z,99694.38
2018-04-07T08:51:39.124Z,99692.48
2018-04-07T08:54:06.696Z,99686.89
2018-04-07T08:56:34.279Z,99692.09
2018-04-07T08:59:02.082Z,99691.16
2018-04-07T09:01:29.702Z,99685.46
2018-04-07T09:03:57.262Z,99676.22
2018-04-07T09:06:24.834Z,99686.35
2018-04-07T09:08:52.426Z,99683.30
2018-04-07T09:11:20.141Z,99680.84
2018-04-07T09:13:47.714Z,99682.89
2018-04-07T09:16:15.502Z,99682.77
2018-04-07T09:18:43.110Z,99683.59
2018-04-07T09:21:10.677Z,99683.81
2018-04-07T09:23:38.238Z,99679.05
2018-04-07T09:26:05.822Z,99684.54
2018-04-07T09:28:33.379Z,99676.50
2018-04-07T09:31:06.500Z,99669.94
2018-04-07T09:33:34.062Z,99664.84
2018-04-07T09:36:01.864Z,99668.97
2018-04-07T09:38:29.441Z,99660.97
2018-04-07T09:40:57.199Z,99665.03
2018-04-07T09:43:25.018Z,99667.64
2018-04-07T09:45:52.627Z,99668.16
2018-04-07T09:48:20.357Z,99662.36
2018-04-07T09:50:47.926Z,99652.88
2018-04-07T09:53:15.577Z,99660.00
2018-04-07T09:55:43.410Z,99644.71
2018-04-07T09:58:10.970Z,99656.55
2018-04-07T10:00:38.744Z,99657.69
2018-04-07T10:03:06.365Z,99652.52
2018-04-07T10:05:33.933Z,99653.94
2018-04-07T10:08:01.501Z,99651.33
2018-04-07T10:10:29.055Z,99653.58
2018-04-07T10:12:56.619Z,99653.67
2018-04-07T10:15:24.182Z,99645.47
2018-04-07T10:17:51.745Z,99647.48
2018-04-07T10:20:19.461Z,99643.02
2018-04-07T10:22:47.046Z,99646.81
2018-04-07T10:25:14.602Z,99644.57
2018-04-07T10:27:42.175Z,99644.19
2018-04-07T10:30:09.962Z,99645.81
2018-04-07T10:32:37.528Z,99638.30
2018-04-07T10:35:05.262Z,99633.70
2018-04-07T10:37:32.906Z,99630.00
2018-04-07T10:40:00.595Z,99635.56
2018-04-07T10:42:28.153Z,99626.93
2018-04-07T10:44:55.967Z,99631.08
2018-04-07T10:47:23.686Z,99629.98
2018-04-07T10:49:51.258Z,99628.85
2018-04-07T10:52:18.817Z,99628.41
2018-04-07T10:54:46.521Z,99637.38
2018-04-07T10:57:14.089Z,99633.86
2018-04-07T10:59:41.763Z,99626.62
2018-04-07T11:02:09.334Z,99628.16
2018-04-07T11:04:37.003Z,99630.19
2018-04-07T11:07:04.583Z,99625.17
2018-04-07T11:09:32.349Z,99624.12
2018-04-07T11:11:59.905Z,99620.48
2018-04-07T11:14:27.683Z,99620.78
2018-04-07T11:16:55.262Z,99621.03
2018-04-07T11:19:22.930Z,99619.73
2018-04-07T11:21:50.497Z,99610.51
2018-04-07T11:24:18.170Z,99612.17
2018-04-07T11:26:45.726Z,99611.80
2018-04-07T11:29:13.492Z,99606.66
2018-04-07T11:31:41.215Z,99609.41
2018-04-07T11:34:08.980Z,99608.34
2018-04-07T11:36:36.638Z,99598.83
2018-04-07T11:39:04.257Z,99606.92
2018-04-07T11:41:31.831Z,99601.82
2018-04-07T11:43:59.397Z,99598.17
2018-04-07T11:46:26.971Z,99597.50
2018-04-07T11:48:54.540Z,99602.38
2018-04-07T11:51:22.101Z,99595.06
2018-04-07T11:53:49.670Z,99604.41
2018-04-07T11:56:17.234Z,99595.07
2018-04-07T11:58:44.797Z,99602.41
2018-04-07T12:01:12.532Z,99603.95
2018-04-07T12:03:40.343Z,99606.04
2018-04-07T12:06:07.953Z,99595.39
2018-04-07T12:08:35.519Z,99589.26
2018-04-07T12:11:03.265Z,99594.92
2018-04-07T12:13:30.826Z,99592.50
2018-04-07T12:15:58.634Z,99587.56
2018-04-07T12:18:26.452Z,99582.55
2018-04-07T12:20:54.170Z,99579.83
2018-04-07T12:23:21.989Z,99581.08
2018-04-07T12:25:49.807Z,99575.47
2018-04-07T12:28:17.413Z,99568.66
2018-04-07T12:30:44.978Z,99574.67
2018-04-07T12:33:12.537Z,99571.28
2018-04-07T12:35:40.115Z,99560.38
2018-04-07T12:38:07.897Z,99552.44
2018-04-07T12:40:35.468Z,99551.08
2018-04-07T12:43:03.050Z,99556.11
2018-04-07T12:45:30.698Z,99559.70
2018-04-07T12:47:58.289Z,99547.13
2018-04-07T12:50:25.872Z,99539.80
2018-04-07T12:52:53.440Z,99539.21
2018-04-07T12:55:21.642Z,99541.66
2018-04-07T12:57:49.210Z,99538.13
2018-04-07T13:00:16.794Z,99536.26
2018-04-07T13:02:44.406Z,99533.59
2018-04-07T13:05:12.200Z,99523.44
2018-04-07T13:07:39.979Z,99532.78
2018-04-07T13:10:07.732Z,99518.77
2018-04-07T13:12:35.552Z,99525.40
2018-04-07T13:15:03.370Z,99530.67
2018-04-07T13:17:30.990Z,99534.16
2018-04-07T13:19:58.807Z,99514.14
2018-04-07T13:22:26.410Z,99517.98
2018-04-07T13:24:54.012Z,99527.59
2018-04-07T13:27:21.774Z,99527.19
2018-04-07T13:29:49.348Z,99527.38
2018-04-07T13:32:16.988Z,99526.89
2018-04-07T13:34:44.554Z,99534.02
2018-04-07T13:37:12.351Z,99533.24
2018-04-07T13:39:39.929Z,99533.30
2018-04-07T13:42:07.491Z,99529.22
2018-04-07T13:44:35.074Z,99532.73
2018-04-07T13:47:02.649Z,99533.61
2018-04-07T13:49:30.332Z,99529.83
2018-04-07T13:51:58.141Z,99532.55
2018-04-07T13:54:25.712Z,99528.86
2018-04-07T13:56:53.368Z,99530.10
2018-04-07T13:59:20.950Z,99533.63
2018-04-07T14:01:48.697Z,99527.00
2018-04-07T14:04:16.438Z,99527.14
2018-04-07T14:06:44.005Z,99525.59
2018-04-07T14:09:11.747Z,99528.54
2018-04-07T14:11:39.317Z,99529.48
2018-04-07T14:14:07.080Z,99531.30
2018-04-07T14:16:34.700Z,99537.38
2018-04-07T14:19:02.258Z,99537.08
2018-04-07T14:21:29.834Z,99525.26
2018-04-07T14:23:57.398Z,99541.98
2018-04-07T14:26:24.966Z,99532.73
2018-04-07T14:28:52.534Z,99534.64
2018-04-07T14:31:20.098Z,99531.53
2018-04-07T14:33:47.847Z,99537.83
2018-04-07T14:36:15.665Z,99534.52
2018-04-07T14:38:43.483Z,99528.98
2018-04-07T14:41:11.042Z,99528.27
2018-04-07T14:43:38.600Z,99524.74
2018-04-07T14:46:06.178Z,99523.48
2018-04-07T14:48:33.739Z,99530.95
2018-04-07T14:51:01.286Z,99527.12
2018-04-07T14:53:29.091Z,99526.81
2018-04-07T14:55:56.654Z,99536.10
2018-04-07T14:58:24.321Z,99529.91
2018-04-07T15:00:52.147Z,99529.80
2018-04-07T15:03:19.726Z,99524.48
2018-04-07T15:05:47.458Z,99527.39
2018-04-07T15:08:15.200Z,99522.95
2018-04-07T15:10:42.829Z,99526.14
2018-04-07T15:13:10.637Z,99526.34
2018-04-07T15:15:38.462Z,99527.20
2018-04-07T15:18:06.273Z,99527.47
2018-04-07T15:20:33.887Z,99526.09
2018-04-07T15:23:01.474Z,99529.09
2018-04-07T15:25:29.230Z,99529.95
2018-04-07T15:27:56.846Z,99533.34
2018-04-07T15:30:24.423Z,99540.47
2018-04-07T15:32:51.994Z,99535.69
2018-04-07T15:35:19.800Z,99538.30
2018-04-07T15:37:47.362Z,99543.05
2018-04-07T15:40:15.030Z,99533.28
2018-04-07T15:42:42.594Z,99543.27
2018-04-07T15:45:10.166Z,99537.67
2018-04-07T15:47:37.770Z,99539.48
2018-04-07T15:50:05.337Z,99538.67
2018-04-07T15:52:33.128Z,99540.42
2018-04-07T15:55:00.950Z,99536.82
2018-04-07T15:57:28.614Z,99541.67
2018-04-07T15:59:56.195Z,99541.17
2018-04-07T16:02:23.767Z,99537.07
2018-04-07T16:04:51.359Z,99536.45
2018-04-07T16:07:19.075Z,99544.12
2018-04-07T16:09:46.682Z,99540.88
2018-04-07T16:12:14.286Z,99541.70
2018-04-07T16:14:41.845Z,99549.27
2018-04-07T16:17:09.457Z,99541.73
2018-04-07T16:19:37.018Z,99539.00
2018-04-07T16:22:04.842Z,99548.04
2018-04-07T16:24:32.660Z,99545.64
2018-04-07T16:27:00.222Z,99552.99
2018-04-07T16:29:27.799Z,99559.23
2018-04-07T16:31:55.614Z,99561.61
2018-04-07T16:34:23.242Z,99556.36
2018-04-07T16:36:51.053Z,99561.07
2018-04-07T16:39:18.872Z,99557.61
2018-04-07T16:41:46.494Z,99565.14
2018-04-07T16:44:14.070Z,99557.36
2018-04-07T16:46:41.715Z,99563.86
2018-04-07T16:49:09.293Z,99569.39
2018-04-07T16:51:36.950Z,99572.69
2018-04-07T16:54:04.552Z,99581.10
2018-04-07T16:56:32.295Z,99577.78
2018-04-07T16:58:59.908Z,99580.16
2018-04-07T17:01:27.733Z,99578.58
2018-04-07T17:03:55.553Z,99584.05
2018-04-07T17:06:23.122Z,99583.14
2018-04-07T17:08:50.742Z,99581.32
2018-04-07T17:11:18.301Z,99583.11
2018-04-07T17:13:46.024Z,99582.37
2018-04-07T17:16:13.610Z,99589.92
2018-04-07T17:18:41.172Z,99591.91
2018-04-07T17:21:08.763Z,99593.37
2018-04-07T17:23:36.372Z,99587.70
2018-04-07T17:26:03.994Z,99592.95
2018-04-07T17:28:31.553Z,99598.19
2018-04-07T17:30:59.348Z,99600.64
2018-04-07T17:33:26.919Z,99602.07
2018-04-07T17:35:54.602Z,99610.52
2018-04-07T17:38:22.401Z,99608.30
2018-04-07T17:40:49.971Z,99613.02
2018-04-07T17:43:17.645Z,99607.66
2018-04-07T17:45:45.357Z,99615.21
2018-04-07T17:48:13.176Z,99612.52
2018-04-07T17:50:40.750Z,99626.23
2018-04-07T17:53:08.403Z,99632.85
2018-04-07T17:55:36.230Z,99632.62
2018-04-07T17:58:04.048Z,99635.16
2018-04-07T18:00:31.866Z,99638.86
2018-04-07T18:02:59.426Z,99646.70
2018-04-07T18:05:26.970Z,99650.98
2018-04-07T18:07:54.722Z,99656.41
2018-04-07T18:10:22.271Z,99657.90
2018-04-07T18:12:49.939Z,99663.61
2018-04-07T18:15:17.645Z,99678.63
2018-04-07T18:17:45.265Z,99668.45
2018-04-07T18:20:12.830Z,99670.95
2018-04-07T18:22:40.629Z,99666.52
2018-04-07T18:25:08.451Z,99672.84
2018-04-07T18:27:36.022Z,99674.92
2018-04-07T18:30:03.670Z,99671.55
2018-04-07T18:32:31.237Z,99681.76
2018-04-07T18:34:59.020Z,99685.11
2018-04-07T18:37:26.589Z,99687.79
2018-04-07T18:39:54.335Z,99688.24
2018-04-07T18:42:22.053Z,99697.31
2018-04-07T18:44:49.626Z,99701.33
2018-04-07T18:47:17.410Z,99703.48
2018-04-07T18:49:44.986Z,99710.65
2018-04-07T18:52:12.611Z,99721.73
2018-04-07T18:54:40.382Z,99715.14
2018-04-07T18:57:08.093Z,99723.05
2018-04-07T18:59:35.665Z,99721.13
2018-04-07T19:02:03.255Z,99719.95
2018-04-07T19:04:30.877Z,99721.07
2018-04-07T19:06:58.487Z,99720.23
2018-04-07T19:09:26.163Z,99723.59
2018-04-07T19:11:53.761Z,99728.43
2018-04-07T19:14:21.358Z,99725.02
2018-04-07T19:16:49.730Z,99726.33
2018-04-07T19:19:17.298Z,99722.94
2018-04-07T19:21:44.952Z,99731.42
2018-04-07T19:24:12.519Z,99733.66
2018-04-07T19:26:40.301Z,99733.23
2018-04-07T19:29:08.020Z,99731.92
2018-04-07T19:31:35.629Z,99729.88
2018-04-07T19:34:03.456Z,99735.83
2018-04-07T19:36:31.274Z,99735.19
2018-04-07T19:38:59.093Z,99734.30
2018-04-07T19:41:26.932Z,99736.77
2018-04-07T19:43:54.543Z,99743.64
2018-04-07T19:46:22.111Z,99737.90
2018-04-07T19:48:49.767Z,99739.45
2018-04-07T19:51:17.587Z,99749.59
2018-04-07T19:53:45.174Z,99742.66
2018-04-07T19:56:12.754Z,99750.09
2018-04-07T19:58:40.318Z,99754.19
2018-04-07T20:01:07.930Z,99757.34
2018-04-07T20:03:35.497Z,99759.43
2018-04-07T20:06:03.294Z,99756.73
2018-04-07T20:08:31.111Z,99756.45
2018-04-07T20:10:58.674Z,99756.16
2018-04-07T20:13:26.446Z,99758.56
2018-04-07T20:15:54.006Z,99759.04
2018-04-07T20:18:21.622Z,99757.66
2018-04-07T20:20:49.437Z,99757.86
2018-04-07T20:23:17.010Z,99758.92
2018-04-07T20:25:44.838Z,99765.23
2018-04-07T20:28:12.402Z,99761.83
2018-04-07T20:30:40.174Z,99764.73
2018-04-07T20:33:07.993Z,99773.23
2018-04-07T20:35:35.614Z,99775.19
2018-04-07T20:38:03.221Z,99775.19
2018-04-07T20:40:30.927Z,99778.17
2018-04-07T20:42:58.765Z,99777.70
2018-04-07T20:45:26.342Z,99779.72
2018-04-07T20:47:53.925Z,99781.65
2018-04-07T20:50:21.489Z,99787.08
2018-04-07T20:52:49.065Z,99778.28
2018-04-07T20:55:16.648Z,99786.05
2018-04-07T20:57:44.372Z,99784.12
2018-04-07T21:00:11.985Z,99793.70
2018-04-07T21:02:39.675Z,99791.46
2018-04-07T21:05:07.244Z,99787.41
2018-04-07T21:07:34.809Z,99789.15
2018-04-07T21:10:02.375Z,99788.89
2018-04-07T21:12:30.064Z,99778.48
2018-04-07T21:14:57.799Z,99780.84
2018-04-07T21:17:25.361Z,99787.94
2018-04-07T21:19:52.947Z,99779.27
2018-04-07T21:22:20.758Z,99781.88
2018-04-07T21:24:48.346Z,99777.84
2018-04-07T21:27:16.066Z,99772.92
2018-04-07T21:29:43.674Z,99778.09
2018-04-07T21:32:11.265Z,99780.37
2018-04-07T21:34:39.042Z,99774.95
2018-04-07T21:37:06.618Z,99778.67
2018-04-07T21:39:34.203Z,99784.00
2018-04-07T21:42:01.777Z,99783.05
2018-04-07T21:44:29.338Z,99787.98
2018-04-07T21:46:57.098Z,99797.09
2018-04-07T21:49:24.840Z,99791.12
2018-04-07T21:51:52.571Z,99796.22
2018-04-07T21:54:20.390Z,99797.58
2018-04-07T21:56:48.109Z,99794.91
2018-04-07T21:59:15.735Z,99795.72
2018-04-07T22:01:43.314Z,99796.50
2018-04-07T22:04:11.160Z,99793.84
2018-04-07T22:06:38.740Z,99791.47
2018-04-07T22:09:06.597Z,99791.12
2018-04-07T22:11:34.210Z,99796.14
2018-04-07T22:14:01.907Z,99802.11
2018-04-07T22:16:29.525Z,99803.70
2018-04-07T22:18:57.269Z,99800.09
2018-04-07T22:21:24.890Z,99812.59
2018-04-07T22:23:52.706Z,99807.28
2018-04-07T22:26:20.299Z,99811.45
2018-04-07T22:28:48.438Z,99808.28
2018-04-07T22:31:16.030Z,99814.25
2018-04-07T22:33:43.662Z,99800.56
2018-04-07T22:36:11.500Z,99803.49
2018-04-07T22:38:39.155Z,99804.79
2018-04-07T22:41:06.719Z,99802.45
2018-04-07T22:43:34.289Z,99806.66
2018-04-07T22:46:01.877Z,99801.78
2018-04-07T22:48:29.687Z,99810.55
2018-04-07T22:50:57.506Z,99806.09
2018-04-07T22:53:25.324Z,99797.88
2018-04-07T22:55:52.943Z,99796.89
2018-04-07T22:58:20.514Z,99797.88
2018-04-07T23:00:48.280Z,99796.89
2018-04-07T23:03:15.831Z,99798.26
2018-04-07T23:05:43.615Z,99791.53
2018-04-07T23:08:11.186Z,99801.43
2018-04-07T23:10:38.757Z,99805.73
2018-04-07T23:13:06.460Z,99799.27
2018-04-07T23:15:34.288Z,99799.56
2018-04-07T23:18:01.864Z,99792.33
2018-04-07T23:20:29.453Z,99789.30
2018-04-07T23:22:57.013Z,99782.92
2018-04-07T23:25:24.582Z,99785.06
2018-04-07T23:27:52.377Z,99777.99
2018-04-07T23:30:20.196Z,99777.80
2018-04-07T23:32:48.113Z,99767.08
2018-04-07T23:35:15.853Z,99763.61
2018-04-07T23:37:43.544Z,99772.39
2018-04-07T23:40:11.269Z,99763.54
2018-04-07T23:42:38.843Z,99766.89
2018-04-07T23:45:06.406Z,99762.52
2018-04-07T23:47:34.038Z,99758.67
2018-04-07T23:50:01.833Z,99759.98
2018-04-07T23:52:29.561Z,99761.03
2018-04-07T23:54:57.380Z,99761.23
2018-04-07T23:57:24.938Z,99757.97
2018-04-07T23:59:52.506Z,99761.39
